Time;durP1;ratioP1;P1;durP2;ratioP2;P2;SDS_P1;SDS_P2;PMS_P1;PMS_P2;Temp;Humidity;BMP_temperature;BMP_pressure;BME280_temperature;BME280_humidity;BME280_pressure;Samples;Min_cycle;Max_cycle;Signal;HPM_P1;HPM_P2
2022/07/30 00:00:05;;;;;;;4.00;3.60;;;27.60;50.50;;;;;;5014416;28;20392;-82
2022/07/30 00:02:33;;;;;;;5.10;4.70;;;27.50;50.30;;;;;;5013757;28;20385;-82
2022/07/30 00:05:03;;;;;;;4.17;3.60;;;27.60;50.40;;;;;;5014115;28;20408;-83
2022/07/30 00:07:50;;;;;;;4.17;3.87;;;27.60;51.00;;;;;;5013664;28;20427;-82
2022/07/30 00:10:19;;;;;;;4.37;4.07;;;27.60;50.40;;;;;;5013633;28;20424;-82
2022/07/30 00:12:52;;;;;;;4.40;3.30;;;27.60;50.50;;;;;;5036694;28;20399;-82
2022/07/30 00:15:36;;;;;;;3.83;3.53;;;27.60;50.00;;;;;;5054157;28;20481;-83
2022/07/30 00:18:15;;;;;;;3.70;3.40;;;27.60;50.20;;;;;;5021537;28;20420;-83
2022/07/30 00:20:50;;;;;;;3.83;3.53;;;27.60;50.00;;;;;;5053009;28;20472;-82
2022/07/30 00:26:41;;;;;;;3.90;3.60;;;27.60;50.30;;;;;;5055529;28;20382;-82
2022/07/30 00:29:12;;;;;;;3.90;3.60;;;27.60;50.30;;;;;;5056090;28;20457;-81
2022/07/30 00:31:40;;;;;;;4.03;3.73;;;27.60;50.40;;;;;;5056900;28;20414;-82
2022/07/30 00:34:12;;;;;;;4.10;3.70;;;27.60;50.50;;;;;;5055392;28;20406;-82
2022/07/30 00:36:42;;;;;;;3.57;3.17;;;27.60;50.50;;;;;;5055682;28;20433;-82
2022/07/30 00:39:15;;;;;;;3.80;3.50;;;27.60;50.30;;;;;;5073770;28;20409;-82
2022/07/30 00:42:00;;;;;;;3.93;3.63;;;27.60;50.30;;;;;;5056547;28;20410;-81
2022/07/30 00:44:28;;;;;;;4.10;3.67;;;27.60;50.40;;;;;;5090184;28;20405;-81
2022/07/30 00:46:55;;;;;;;4.20;3.80;;;27.60;50.30;;;;;;5087591;28;20428;-82
2022/07/30 00:49:27;;;;;;;3.53;3.23;;;27.60;50.40;;;;;;5074298;28;20468;-82
2022/07/30 00:51:57;;;;;;;3.53;3.23;;;27.60;50.40;;;;;;5040516;28;20410;-82
2022/07/30 00:54:26;;;;;;;4.20;3.53;;;27.60;50.30;;;;;;5038977;28;20452;-82
2022/07/30 00:56:55;;;;;;;4.20;3.80;;;27.60;50.30;;;;;;5090302;28;20424;-82
2022/07/30 00:59:26;;;;;;;3.63;3.33;;;27.60;50.30;;;;;;5056626;28;20412;-82
2022/07/30 01:02:11;;;;;;;4.50;3.53;;;27.60;50.30;;;;;;5073841;28;20428;-82
2022/07/30 01:04:44;;;;;;;3.80;3.50;;;27.60;50.30;;;;;;5073905;28;20389;-82
2022/07/30 01:07:11;;;;;;;4.07;3.60;;;27.60;50.50;;;;;;5053927;28;20427;-82
2022/07/30 01:09:39;;;;;;;4.77;4.40;;;27.60;50.60;;;;;;5074097;28;20465;-82
2022/07/30 01:12:08;;;;;;;5.20;3.90;;;27.60;50.40;;;;;;5073127;28;20490;-82
2022/07/30 01:14:41;;;;;;;3.97;3.67;;;27.60;50.40;;;;;;5056592;28;20447;-82
2022/07/30 01:17:10;;;;;;;3.80;3.50;;;27.60;50.40;;;;;;5074265;28;20404;-82
2022/07/30 01:19:54;;;;;;;3.90;3.60;;;27.60;50.40;;;;;;5054171;28;20410;-82
2022/07/30 01:22:47;;;;;;;3.47;3.17;;;27.60;50.10;;;;;;5056852;28;20414;-82
2022/07/30 01:25:30;;;;;;;3.73;3.40;;;27.60;50.10;;;;;;5016257;28;20414;-82
2022/07/30 01:28:16;;;;;;;3.20;3.00;;;27.60;50.30;;;;;;5016034;28;20407;-82
2022/07/30 01:30:46;;;;;;;3.70;3.40;;;27.60;50.40;;;;;;4999609;28;20411;-82
2022/07/30 01:33:16;;;;;;;4.93;3.30;;;27.60;50.40;;;;;;5016039;28;20419;-82
2022/07/30 01:35:47;;;;;;;3.93;3.57;;;27.60;50.40;;;;;;5032158;28;20400;-82
2022/07/30 01:38:20;;;;;;;3.73;3.40;;;27.60;50.50;;;;;;4997711;28;20488;-82
2022/07/30 01:40:56;;;;;;;4.00;3.60;;;27.60;50.40;;;;;;5007892;28;20471;-82
2022/07/30 01:43:34;;;;;;;3.90;3.47;;;27.70;50.40;;;;;;5032660;28;20415;-82
2022/07/30 01:46:03;;;;;;;3.60;3.30;;;27.60;50.30;;;;;;5000787;28;20403;-82
2022/07/30 01:48:34;;;;;;;4.00;3.60;;;27.60;50.30;;;;;;5015997;28;20518;-82
2022/07/30 01:51:07;;;;;;;3.30;3.00;;;27.70;50.50;;;;;;5019963;28;20884;-82
2022/07/30 01:53:38;;;;;;;3.93;3.63;;;27.70;50.50;;;;;;5001718;28;20467;-82
2022/07/30 01:56:06;;;;;;;3.73;3.43;;;27.70;50.40;;;;;;5019601;28;20499;-82
2022/07/30 01:58:37;;;;;;;3.80;3.50;;;27.60;50.50;;;;;;5003469;28;20423;-82
2022/07/30 02:01:08;;;;;;;4.70;3.87;;;27.70;50.60;;;;;;5005542;28;20438;-83
2022/07/30 02:03:55;;;;;;;4.30;4.00;;;27.70;50.50;;;;;;5057541;28;20429;-82
2022/07/30 02:06:26;;;;;;;4.37;3.97;;;27.70;50.50;;;;;;5060216;28;20421;-82
2022/07/30 02:08:57;;;;;;;5.10;4.70;;;27.70;50.50;;;;;;5076399;28;20480;-82
2022/07/30 02:14:33;;;;;;;5.30;4.80;;;27.60;50.80;;;;;;5077051;28;20398;-82
2022/07/30 02:17:12;;;;;;;4.50;4.10;;;27.70;50.50;;;;;;5061411;28;20489;-82
2022/07/30 02:19:42;;;;;;;5.07;4.33;;;27.60;50.70;;;;;;5044556;28;20425;-82
2022/07/30 02:22:14;;;;;;;4.27;3.93;;;27.60;50.70;;;;;;5059238;28;20481;-82
2022/07/30 02:24:48;;;;;;;4.00;3.70;;;27.60;50.70;;;;;;5092538;28;20386;-82
2022/07/30 02:27:29;;;;;;;3.83;3.53;;;27.60;50.70;;;;;;5073705;28;20469;-82
2022/07/30 02:30:05;;;;;;;3.87;3.57;;;27.60;50.70;;;;;;5058566;28;20453;-82
2022/07/30 02:32:42;;;;;;;4.00;3.70;;;27.60;51.40;;;;;;5076174;28;20451;-82
2022/07/30 02:35:21;;;;;;;4.87;3.43;;;27.60;50.80;;;;;;5076989;28;20481;-82
2022/07/30 02:37:52;;;;;;;4.07;3.77;;;27.60;50.80;;;;;;5059088;28;20409;-82
2022/07/30 02:40:30;;;;;;;3.50;3.20;;;27.60;50.90;;;;;;5076543;28;20389;-82
2022/07/30 02:43:04;;;;;;;3.70;3.40;;;27.60;51.00;;;;;;5042365;28;20409;-82
2022/07/30 02:45:32;;;;;;;3.30;3.00;;;27.60;51.00;;;;;;5075949;28;20428;-82
2022/07/30 02:48:05;;;;;;;3.80;3.50;;;27.60;51.10;;;;;;5056990;28;20464;-82
2022/07/30 02:50:34;;;;;;;3.90;3.60;;;27.60;50.90;;;;;;5057764;28;20426;-82
2022/07/30 02:53:10;;;;;;;4.27;3.87;;;27.60;51.00;;;;;;5058892;28;20425;-82
2022/07/30 02:55:42;;;;;;;4.10;3.70;;;27.60;51.00;;;;;;5042268;28;20440;-82
2022/07/30 02:58:11;;;;;;;3.60;3.30;;;27.60;51.10;;;;;;5090894;28;20409;-83
2022/07/30 03:00:46;;;;;;;4.10;3.63;;;27.60;51.10;;;;;;5057547;28;20417;-83
2022/07/30 03:03:16;;;;;;;4.57;3.33;;;27.60;51.00;;;;;;5058599;28;20492;-83
2022/07/30 03:05:45;;;;;;;4.23;3.80;;;27.60;51.10;;;;;;5058552;28;20418;-82
2022/07/30 03:08:16;;;;;;;3.30;3.10;;;27.60;51.00;;;;;;5041990;28;20445;-83
2022/07/30 03:11:33;;;;;;;3.70;3.40;;;27.70;51.20;;;;;;5058949;28;20390;-83
2022/07/30 03:21:38;;;;;;;3.90;3.37;;;27.60;51.10;;;;;;4959389;29;20467;-83
2022/07/30 03:27:58;;;;;;;4.33;3.93;;;27.60;51.20;;;;;;4938030;29;20426;-82
2022/07/30 03:34:01;;;;;;;4.40;4.00;;;27.60;51.40;;;;;;4918396;29;20544;-83
2022/07/30 03:36:30;;;;;;;6.60;4.30;;;27.50;51.30;;;;;;4917863;29;20417;-83
2022/07/30 03:39:00;;;;;;;5.40;4.40;;;27.50;51.30;;;;;;4902247;29;20393;-82
2022/07/30 03:41:27;;;;;;;4.33;3.93;;;27.60;51.30;;;;;;4902061;29;20416;-82
2022/07/30 03:43:59;;;;;;;5.13;4.73;;;27.50;51.30;;;;;;4902399;29;20413;-82
2022/07/30 03:46:54;;;;;;;4.97;4.57;;;27.50;51.30;;;;;;4904046;29;20409;-82
2022/07/30 03:49:24;;;;;;;4.90;4.50;;;27.60;51.30;;;;;;4957278;29;20490;-82
2022/07/30 03:51:58;;;;;;;5.30;4.60;;;27.50;51.40;;;;;;4942337;29;20423;-82
2022/07/30 03:54:42;;;;;;;4.80;4.30;;;27.50;51.40;;;;;;4983810;28;20440;-82
2022/07/30 03:57:10;;;;;;;5.20;4.30;;;27.50;51.40;;;;;;4980191;28;20420;-82
2022/07/30 04:00:07;;;;;;;4.10;3.80;;;27.50;51.60;;;;;;4996053;28;20412;-82
2022/07/30 04:03:04;;;;;;;5.47;3.77;;;27.50;51.50;;;;;;4995738;28;20413;-81
2022/07/30 04:05:45;;;;;;;4.73;3.50;;;27.50;51.40;;;;;;4992392;28;20409;-81
2022/07/30 04:08:27;;;;;;;3.63;3.33;;;27.50;51.40;;;;;;4981517;28;20453;-81
2022/07/30 04:11:15;;;;;;;3.50;3.20;;;27.40;51.30;;;;;;4995918;28;20420;-81
2022/07/30 04:13:52;;;;;;;3.90;3.60;;;27.40;51.30;;;;;;4979735;28;20405;-81
2022/07/30 04:17:06;;;;;;;3.57;3.27;;;27.40;51.30;;;;;;4979351;28;20423;-81
2022/07/30 04:20:12;;;;;;;3.23;2.93;;;27.40;51.40;;;;;;4995607;28;20423;-81
2022/07/30 04:22:58;;;;;;;3.17;2.97;;;27.40;51.30;;;;;;4994798;28;20442;-81
2022/07/30 04:25:27;;;;;;;2.53;2.33;;;27.30;51.20;;;;;;4995007;28;20409;-81
2022/07/30 04:27:59;;;;;;;2.60;2.40;;;27.30;51.30;;;;;;4977692;28;20413;-82
2022/07/30 04:30:39;;;;;;;2.50;2.30;;;27.30;51.30;;;;;;4994587;28;20535;-82
2022/07/30 04:33:26;;;;;;;2.13;1.93;;;27.30;51.20;;;;;;4978515;28;20441;-81
2022/07/30 04:36:09;;;;;;;2.90;2.37;;;27.30;51.20;;;;;;5027408;28;20405;-81
2022/07/30 04:38:38;;;;;;;2.50;1.93;;;27.30;51.20;;;;;;5025845;28;20413;-82
2022/07/30 04:41:18;;;;;;;2.50;2.30;;;27.30;51.20;;;;;;5073633;28;20504;-81
2022/07/30 04:43:59;;;;;;;2.23;2.00;;;27.30;51.10;;;;;;5075673;28;20406;-81
2022/07/30 04:46:52;;;;;;;2.60;2.40;;;27.30;51.10;;;;;;5058241;28;20461;-81
2022/07/30 04:49:26;;;;;;;2.40;1.97;;;27.40;51.10;;;;;;5057038;28;20530;-81
2022/07/30 04:52:01;;;;;;;2.03;1.83;;;27.30;51.00;;;;;;5075746;28;20411;-81
2022/07/30 05:01:21;;;;;;;2.63;2.10;;;27.30;50.90;;;;;;5033979;28;20391;-81
2022/07/30 05:03:52;;;;;;;2.73;2.20;;;27.30;50.90;;;;;;5004582;28;20434;-81
2022/07/30 05:06:26;;;;;;;2.50;2.27;;;27.30;50.90;;;;;;5034899;28;20400;-80
2022/07/30 05:09:02;;;;;;;2.77;2.57;;;27.30;50.80;;;;;;5019416;28;20442;-80
2022/07/30 05:11:34;;;;;;;2.50;2.30;;;27.40;50.90;;;;;;5034618;28;20458;-79
2022/07/30 05:17:35;;;;;;;2.40;2.20;;;27.40;50.80;;;;;;5033699;28;20449;-81
2022/07/30 05:20:03;;;;;;;2.37;2.17;;;27.30;50.80;;;;;;5033956;28;20419;-80
2022/07/30 05:22:31;;;;;;;2.23;1.80;;;27.30;50.70;;;;;;5000869;28;20418;-80
2022/07/30 05:28:49;;;;;;;4.33;2.00;;;27.40;50.80;;;;;;5019187;28;20451;-82
2022/07/30 05:31:16;;;;;;;2.20;2.00;;;27.30;50.80;;;;;;5002576;28;20423;-82
2022/07/30 05:33:53;;;;;;;2.00;1.90;;;27.40;50.90;;;;;;5003149;28;20473;-82
2022/07/30 05:36:25;;;;;;;2.30;2.07;;;27.40;50.80;;;;;;5018522;28;20420;-82
2022/07/30 05:38:53;;;;;;;3.03;2.30;;;27.40;50.80;;;;;;5003171;28;20431;-82
2022/07/30 05:41:40;;;;;;;3.20;2.00;;;27.40;50.80;;;;;;5019186;28;20415;-82
2022/07/30 05:44:52;;;;;;;2.40;1.90;;;27.40;50.70;;;;;;5018267;28;20416;-81
2022/07/30 05:47:43;;;;;;;2.30;1.90;;;27.40;50.80;;;;;;5035893;28;20400;-82
2022/07/30 05:53:36;;;;;;;2.40;2.20;;;27.40;50.80;;;;;;5058724;28;20392;-82
2022/07/30 05:59:31;;;;;;;2.33;2.10;;;27.40;50.80;;;;;;5059098;28;20381;-82
2022/07/30 06:02:01;;;;;;;2.57;2.30;;;27.40;50.80;;;;;;5036642;28;20430;-82
2022/07/30 06:04:29;;;;;;;2.50;1.90;;;27.40;50.70;;;;;;5053052;28;20421;-82
2022/07/30 06:07:01;;;;;;;2.30;2.10;;;27.40;50.90;;;;;;5062597;28;20405;-82
2022/07/30 06:13:31;;;;;;;2.13;1.80;;;27.30;50.50;;;;;;5079393;28;20385;-82
2022/07/30 06:16:18;;;;;;;2.83;1.80;;;27.30;50.60;;;;;;5061726;28;20416;-82
2022/07/30 06:18:50;;;;;;;1.57;1.47;;;27.30;50.70;;;;;;5079155;28;20474;-82
2022/07/30 06:21:21;;;;;;;2.50;2.30;;;27.30;50.70;;;;;;5046120;28;20434;-82
2022/07/30 06:24:15;;;;;;;1.80;1.70;;;27.30;50.70;;;;;;5069646;28;20443;-82
2022/07/30 06:37:15;;;;;;;2.20;2.00;;;27.30;50.70;;;;;;5037402;28;20447;-80
2022/07/30 06:40:06;;;;;;;1.87;1.70;;;27.30;50.80;;;;;;5037094;28;20407;-80
2022/07/30 06:42:55;;;;;;;2.90;2.30;;;27.30;50.80;;;;;;5014315;28;20435;-81
2022/07/30 06:45:46;;;;;;;2.10;1.97;;;27.30;50.60;;;;;;5037726;28;20407;-82
2022/07/30 06:48:19;;;;;;;2.53;1.87;;;27.30;50.60;;;;;;5019314;28;20450;-83
2022/07/30 06:51:51;;;;;;;2.47;2.27;;;27.30;50.60;;;;;;5036672;28;20510;-82
2022/07/30 06:54:46;;;;;;;2.43;2.23;;;27.30;50.60;;;;;;5037192;28;20403;-82
2022/07/30 07:00:57;;;;;;;2.70;2.40;;;27.30;50.70;;;;;;5062156;28;20385;-81
2022/07/30 07:03:26;;;;;;;2.27;2.07;;;27.30;50.70;;;;;;5058866;28;20410;-81
2022/07/30 07:05:54;;;;;;;2.30;1.90;;;27.30;50.60;;;;;;5040010;28;20406;-81
2022/07/30 07:08:21;;;;;;;2.70;2.10;;;27.30;50.60;;;;;;5058524;28;20520;-81
2022/07/30 07:10:47;;;;;;;3.23;2.13;;;27.30;50.60;;;;;;5058484;28;20418;-81
2022/07/30 07:13:17;;;;;;;2.27;2.07;;;27.30;50.60;;;;;;5058233;28;20408;-80
2022/07/30 07:15:45;;;;;;;2.50;2.30;;;27.40;50.50;;;;;;5091955;28;20417;-80
2022/07/30 07:18:25;;;;;;;1.93;1.83;;;27.30;50.50;;;;;;5058190;28;20393;-80
2022/07/30 07:20:51;;;;;;;3.00;2.10;;;27.30;50.50;;;;;;5057759;28;20419;-80
2022/07/30 07:23:18;;;;;;;2.43;2.23;;;27.40;50.50;;;;;;5073895;28;20414;-80
2022/07/30 07:25:46;;;;;;;2.43;2.23;;;27.30;50.40;;;;;;5056818;28;20441;-82
2022/07/30 07:28:14;;;;;;;2.20;2.00;;;27.40;50.50;;;;;;5056495;28;20406;-80
2022/07/30 07:30:43;;;;;;;2.33;2.13;;;27.40;50.50;;;;;;5057100;28;20448;-80
2022/07/30 07:33:10;;;;;;;2.83;2.10;;;27.40;50.40;;;;;;5074213;28;20452;-80
2022/07/30 07:35:39;;;;;;;2.77;2.53;;;27.40;50.50;;;;;;5056546;28;20422;-81
2022/07/30 07:38:05;;;;;;;4.93;2.40;;;27.40;50.50;;;;;;5055272;28;20421;-80
2022/07/30 07:40:31;;;;;;;2.17;1.97;;;27.40;50.40;;;;;;5056902;28;20409;-80
2022/07/30 07:43:04;;;;;;;2.33;2.13;;;27.40;50.40;;;;;;5072397;28;20401;-80
2022/07/30 07:45:31;;;;;;;2.20;2.03;;;27.40;50.30;;;;;;5056200;28;20416;-81
2022/07/30 07:48:03;;;;;;;2.40;2.20;;;27.30;50.30;;;;;;5055417;28;20425;-81
2022/07/30 07:50:29;;;;;;;3.03;2.60;;;27.30;50.30;;;;;;5089815;28;20460;-80
2022/07/30 07:52:55;;;;;;;2.93;2.10;;;27.30;50.30;;;;;;5073785;28;20434;-80
2022/07/30 07:55:24;;;;;;;2.30;2.10;;;27.30;50.40;;;;;;5072755;28;20469;-80
2022/07/30 07:58:00;;;;;;;2.30;2.10;;;27.30;50.40;;;;;;5072529;28;20457;-81
2022/07/30 08:00:28;;;;;;;2.33;2.13;;;27.30;50.40;;;;;;5055656;28;20409;-81
2022/07/30 08:02:58;;;;;;;2.13;2.00;;;27.30;50.40;;;;;;5072768;28;20406;-80
2022/07/30 08:05:26;;;;;;;2.70;2.50;;;27.30;50.30;;;;;;5055727;28;20418;-79
2022/07/30 08:08:06;;;;;;;2.30;2.10;;;27.30;50.30;;;;;;5073145;28;20433;-81
2022/07/30 08:10:36;;;;;;;2.53;2.10;;;27.30;50.30;;;;;;5038833;28;20429;-80
2022/07/30 08:13:05;;;;;;;2.03;1.93;;;27.30;50.30;;;;;;5088827;28;20440;-80
2022/07/30 08:15:38;;;;;;;3.20;2.57;;;27.30;50.40;;;;;;5055684;28;20417;-80
2022/07/30 08:18:06;;;;;;;2.47;2.27;;;27.30;50.40;;;;;;5055743;28;20993;-81
2022/07/30 08:20:38;;;;;;;2.80;2.60;;;27.30;50.40;;;;;;5056508;28;20397;-80
2022/07/30 08:23:07;;;;;;;2.60;2.40;;;27.30;50.40;;;;;;5055825;28;20426;-80
2022/07/30 08:25:34;;;;;;;2.60;2.30;;;27.30;50.30;;;;;;5055190;28;20449;-81
2022/07/30 08:28:10;;;;;;;2.90;2.70;;;27.30;50.30;;;;;;5055478;28;20413;-80
2022/07/30 08:37:13;;;;;;;2.40;2.20;;;27.30;50.40;;;;;;5073091;28;20667;-80
2022/07/30 08:39:40;;;;;;;4.80;2.90;;;27.30;50.40;;;;;;5055133;28;20405;-81
2022/07/30 08:42:16;;;;;;;2.27;2.10;;;27.30;50.40;;;;;;5088738;28;20405;-80
2022/07/30 08:44:47;;;;;;;2.43;2.23;;;27.30;50.30;;;;;;5087606;28;20414;-81
2022/07/30 08:47:33;;;;;;;2.97;2.67;;;27.30;50.50;;;;;;5042521;28;20413;-80
2022/07/30 08:50:37;;;;;;;2.90;2.70;;;27.30;50.40;;;;;;5056835;28;20449;-80
2022/07/30 08:53:08;;;;;;;3.10;2.83;;;27.30;50.40;;;;;;5057520;28;20708;-81
2022/07/30 08:56:04;;;;;;;3.03;2.83;;;27.30;50.50;;;;;;5015522;28;20404;-81
2022/07/30 08:58:37;;;;;;;2.87;2.53;;;27.30;50.50;;;;;;5014042;28;20475;-81
2022/07/30 09:01:33;;;;;;;3.00;2.70;;;27.30;50.50;;;;;;5000034;28;20416;-81
2022/07/30 09:04:05;;;;;;;2.73;2.53;;;27.30;50.50;;;;;;4999008;28;20496;-81
2022/07/30 09:06:49;;;;;;;6.33;2.90;;;27.30;50.50;;;;;;5001443;28;20404;-80
2022/07/30 09:09:28;;;;;;;2.60;2.40;;;27.30;50.50;;;;;;5014735;28;20444;-81
2022/07/30 09:11:57;;;;;;;3.00;2.57;;;27.30;50.50;;;;;;4998539;28;20432;-81
2022/07/30 09:14:24;;;;;;;2.83;2.40;;;27.30;50.60;;;;;;4999455;28;20404;-81
2022/07/30 09:17:25;;;;;;;;;;;;;;;;;;;;;
2022/07/30 09:23:40;;;;;;;2.93;2.67;;;27.30;50.60;;;;;;4995793;28;20439;-81
2022/07/30 09:33:15;;;;;;;2.93;2.70;;;27.30;50.60;;;;;;4938371;29;20390;-81
2022/07/30 09:46:18;;;;;;;3.30;2.83;;;27.30;50.70;;;;;;4899184;29;20395;-81
2022/07/30 09:52:49;;;;;;;2.83;2.60;;;27.30;50.60;;;;;;4827300;29;20424;-81
2022/07/30 09:55:39;;;;;;;2.97;2.73;;;27.20;50.40;;;;;;4844194;29;20803;-80
2022/07/30 09:58:52;;;;;;;3.23;2.90;;;27.20;50.40;;;;;;4844912;29;20451;-80
2022/07/30 10:02:16;;;;;;;3.10;2.50;;;27.20;50.50;;;;;;4843753;29;20431;-80
2022/07/30 10:05:23;;;;;;;3.40;2.80;;;27.20;50.50;;;;;;4845257;29;20400;-80
2022/07/30 10:08:39;;;;;;;3.37;3.07;;;27.20;50.50;;;;;;4844893;29;20409;-81
2022/07/30 10:15:02;;;;;;;2.80;2.33;;;27.20;50.50;;;;;;4903950;29;20453;-81
2022/07/30 10:17:57;;;;;;;2.90;2.70;;;27.20;50.50;;;;;;4905823;29;20465;-81
2022/07/30 10:20:43;;;;;;;2.80;2.60;;;27.20;50.50;;;;;;4887144;29;20425;-81
2022/07/30 10:23:42;;;;;;;3.13;2.53;;;27.20;50.40;;;;;;4887861;29;20406;-81
2022/07/30 10:26:33;;;;;;;3.37;2.80;;;27.20;50.40;;;;;;4901539;29;20471;-82
2022/07/30 10:29:06;;;;;;;3.03;2.77;;;27.20;50.30;;;;;;4917791;29;20458;-81
2022/07/30 10:38:22;;;;;;;3.03;2.83;;;27.20;50.10;;;;;;4996777;28;20385;-82
2022/07/30 10:41:04;;;;;;;3.10;2.80;;;27.30;50.00;;;;;;4997347;28;20481;-82
2022/07/30 10:44:01;;;;;;;3.63;2.40;;;27.20;49.90;;;;;;4995552;28;20432;-83
2022/07/30 10:50:13;;;;;;;2.97;2.67;;;27.20;49.90;;;;;;4978467;28;20517;-81
2022/07/30 10:53:05;;;;;;;3.07;2.83;;;27.20;50.00;;;;;;4978194;29;20421;-82
2022/07/30 10:55:39;;;;;;;3.43;3.13;;;27.20;50.10;;;;;;4977926;29;20445;-80
2022/07/30 10:58:14;;;;;;;2.80;2.60;;;27.20;49.90;;;;;;4977766;29;20425;-81
2022/07/30 11:07:53;;;;;;;3.40;3.10;;;27.30;49.80;;;;;;4920524;29;20446;-81
2022/07/30 11:11:15;;;;;;;2.63;2.43;;;27.20;49.90;;;;;;4920377;29;20469;-81
2022/07/30 11:14:03;;;;;;;3.43;2.67;;;27.20;49.80;;;;;;4917704;29;20429;-81
2022/07/30 11:17:06;;;;;;;3.40;2.60;;;27.20;49.80;;;;;;4920676;29;20425;-81
2022/07/30 11:23:32;;;;;;;7.40;5.63;;;27.30;49.70;;;;;;4881885;29;20394;-83
2022/07/30 11:26:09;;;;;;;16.40;11.73;;;27.20;49.70;;;;;;4882108;29;20421;-81
2022/07/30 11:29:11;;;;;;;18.80;13.47;;;27.20;49.80;;;;;;4873006;29;20455;-81
2022/07/30 11:31:55;;;;;;;21.13;13.33;;;27.20;49.70;;;;;;4861012;29;20411;-80
2022/07/30 11:35:17;;;;;;;16.00;11.97;;;27.20;49.70;;;;;;4848819;29;20412;-81
2022/07/30 11:48:12;;;;;;;6.30;5.27;;;27.20;49.70;;;;;;4863653;29;20412;-81
2022/07/30 11:51:04;;;;;;;4.57;4.10;;;27.20;49.70;;;;;;4863301;29;20439;-82
2022/07/30 11:53:38;;;;;;;4.77;4.27;;;27.20;49.80;;;;;;4863028;29;20426;-81
2022/07/30 11:56:15;;;;;;;4.87;4.13;;;27.20;49.80;;;;;;4880018;29;20418;-82
2022/07/30 12:02:07;;;;;;;4.87;3.50;;;27.30;49.80;;;;;;4889886;29;20567;-82
2022/07/30 12:04:50;;;;;;;4.30;3.00;;;27.30;49.80;;;;;;4901289;29;20421;-83
2022/07/30 12:07:34;;;;;;;4.10;3.70;;;27.30;50.40;;;;;;4901726;29;20433;-82
2022/07/30 12:10:38;;;;;;;3.40;3.10;;;27.30;49.90;;;;;;4914602;29;20461;-82
2022/07/30 12:20:02;;;;;;;4.10;3.00;;;27.30;50.10;;;;;;4979253;28;20976;-82
2022/07/30 12:22:48;;;;;;;3.33;2.73;;;27.30;50.20;;;;;;5054416;28;20379;-82
2022/07/30 12:28:49;;;;;;;3.23;2.80;;;27.30;50.10;;;;;;5054929;28;20621;-82
2022/07/30 12:35:10;;;;;;;3.23;2.90;;;27.30;50.00;;;;;;5015060;28;20415;-81
2022/07/30 12:38:07;;;;;;;3.40;2.93;;;27.30;50.10;;;;;;5016166;28;20396;-80
2022/07/30 12:41:23;;;;;;;2.60;2.40;;;27.30;50.00;;;;;;5011410;28;20420;-81
2022/07/30 12:44:35;;;;;;;3.60;2.50;;;27.30;50.00;;;;;;5001591;28;20484;-81
2022/07/30 12:51:08;;;;;;;2.97;2.63;;;27.30;50.10;;;;;;4957374;29;20447;-81
2022/07/30 12:54:07;;;;;;;4.00;3.37;;;27.30;50.10;;;;;;4956656;29;20411;-81
2022/07/30 12:56:41;;;;;;;3.10;2.90;;;27.30;50.20;;;;;;4957371;29;20967;-82
2022/07/30 13:00:28;;;;;;;3.90;3.57;;;27.30;50.20;;;;;;4944989;29;20415;-82
2022/07/30 13:03:38;;;;;;;3.40;3.10;;;27.40;50.20;;;;;;4932046;29;20415;-82
2022/07/30 13:09:59;;;;;;;3.70;3.40;;;27.30;50.00;;;;;;4881420;29;20584;-82
2022/07/30 13:12:27;;;;;;;3.67;3.23;;;27.30;49.90;;;;;;4899420;29;20420;-81
2022/07/30 13:14:56;;;;;;;3.87;3.57;;;27.30;49.80;;;;;;4920000;29;20525;-83
2022/07/30 13:17:27;;;;;;;4.00;3.10;;;27.40;49.80;;;;;;4935521;29;20416;-83
2022/07/30 13:20:00;;;;;;;3.53;3.23;;;27.40;49.80;;;;;;4933572;29;20483;-83
2022/07/30 13:22:34;;;;;;;3.70;3.10;;;27.40;49.60;;;;;;4946431;28;20448;-83
2022/07/30 13:25:17;;;;;;;;;;;;;;;;;;;;;
2022/07/30 13:27:55;;;;;;;3.27;2.97;;;27.40;49.40;;;;;;4993832;28;20432;-81
2022/07/30 13:30:31;;;;;;;3.70;3.40;;;27.40;49.40;;;;;;4993511;28;20445;-81
2022/07/30 13:33:07;;;;;;;3.23;2.83;;;27.40;49.40;;;;;;4993702;28;20784;-81
2022/07/30 13:35:48;;;;;;;3.30;3.00;;;27.40;49.30;;;;;;4977427;28;20412;-81
2022/07/30 13:38:20;;;;;;;3.83;3.53;;;27.40;49.10;;;;;;4994080;28;20409;-81
2022/07/30 13:40:47;;;;;;;3.07;2.87;;;27.40;49.20;;;;;;4993172;28;20424;-80
2022/07/30 13:43:22;;;;;;;4.13;3.60;;;27.40;49.10;;;;;;4978242;28;20381;-80
2022/07/30 13:45:53;;;;;;;3.20;2.90;;;27.40;49.20;;;;;;5031412;28;20433;-81
2022/07/30 13:51:45;;;;;;;3.87;3.57;;;27.40;49.00;;;;;;5117904;28;20379;-81
2022/07/30 13:54:24;;;;;;;3.83;3.40;;;27.40;49.00;;;;;;5083667;28;20416;-82
2022/07/30 13:57:07;;;;;;;3.60;3.30;;;27.40;49.10;;;;;;5114941;28;20441;-81
2022/07/30 13:59:36;;;;;;;3.50;3.20;;;27.40;49.10;;;;;;5099871;28;20418;-82
2022/07/30 14:02:13;;;;;;;5.50;3.30;;;27.40;49.20;;;;;;5099712;28;20472;-81
2022/07/30 14:04:53;;;;;;;3.33;3.03;;;27.40;49.00;;;;;;5085791;28;20419;-81
2022/07/30 14:11:07;;;;;;;3.73;3.03;;;27.40;49.00;;;;;;5117920;28;20443;-82
2022/07/30 14:13:37;;;;;;;2.87;2.67;;;27.40;49.10;;;;;;5083056;28;20419;-82
2022/07/30 14:16:07;;;;;;;3.17;2.87;;;27.40;49.00;;;;;;5100025;28;20392;-81
2022/07/30 14:18:48;;;;;;;2.70;2.50;;;27.30;49.00;;;;;;5093365;28;20489;-81
2022/07/30 14:21:16;;;;;;;2.87;2.47;;;27.40;49.00;;;;;;5099713;28;20418;-82
2022/07/30 14:23:45;;;;;;;3.10;2.77;;;27.40;49.00;;;;;;5099692;28;20412;-81
2022/07/30 14:26:13;;;;;;;2.60;2.40;;;27.30;49.00;;;;;;5082763;28;20404;-81
2022/07/30 14:28:46;;;;;;;2.67;2.47;;;27.40;49.00;;;;;;5095817;28;20443;-81
2022/07/30 14:34:40;;;;;;;3.10;2.80;;;27.40;49.00;;;;;;5055359;28;20405;-82
2022/07/30 14:37:12;;;;;;;4.00;2.80;;;27.40;49.10;;;;;;5099247;28;20414;-82
2022/07/30 14:39:47;;;;;;;2.37;2.17;;;27.40;49.10;;;;;;5112779;28;20511;-81
2022/07/30 14:42:24;;;;;;;3.20;2.90;;;27.40;49.20;;;;;;5081597;28;20447;-81
2022/07/30 14:44:59;;;;;;;3.53;2.57;;;27.40;49.30;;;;;;5098699;28;20434;-80
2022/07/30 14:47:28;;;;;;;2.60;2.40;;;27.40;49.40;;;;;;5099698;28;20439;-80
2022/07/30 14:50:00;;;;;;;3.20;2.60;;;27.40;49.50;;;;;;5098952;28;20443;-81
2022/07/30 14:52:46;;;;;;;2.87;2.20;;;27.40;49.70;;;;;;5098613;28;20400;-80
2022/07/30 14:55:14;;;;;;;3.93;3.20;;;27.40;49.80;;;;;;5099774;28;20412;-81
2022/07/30 14:57:50;;;;;;;3.10;2.80;;;27.40;50.10;;;;;;5093602;28;20415;-82
2022/07/30 15:00:21;;;;;;;3.40;3.10;;;27.40;50.00;;;;;;5098083;28;20449;-81
2022/07/30 15:02:53;;;;;;;5.70;3.20;;;27.30;49.90;;;;;;5082413;28;20467;-82
2022/07/30 15:05:26;;;;;;;3.80;3.13;;;27.40;50.10;;;;;;5082755;28;20436;-82
2022/07/30 15:08:01;;;;;;;2.97;2.60;;;27.40;49.90;;;;;;5116309;28;20423;-82
2022/07/30 15:10:41;;;;;;;3.30;2.63;;;27.30;50.00;;;;;;5117174;28;20447;-82
2022/07/30 15:13:10;;;;;;;2.70;2.50;;;27.30;49.90;;;;;;5116800;28;20403;-81
2022/07/30 15:15:39;;;;;;;3.10;2.80;;;27.40;50.10;;;;;;5117164;28;20407;-83
2022/07/30 15:18:29;;;;;;;3.27;2.60;;;27.40;50.00;;;;;;5098262;28;20508;-82
2022/07/30 15:24:33;;;;;;;3.67;3.07;;;27.30;50.10;;;;;;5116787;28;20399;-82
2022/07/30 15:27:32;;;;;;;4.47;3.00;;;27.40;50.10;;;;;;5099644;28;20431;-82
2022/07/30 15:30:01;;;;;;;5.30;2.60;;;27.30;50.20;;;;;;5097719;28;20482;-82
2022/07/30 15:35:34;;;;;;;2.97;2.67;;;27.30;50.40;;;;;;5059776;28;20423;-81
2022/07/30 15:41:17;;;;;;;2.90;2.57;;;27.30;50.70;;;;;;5103576;28;20490;-83
2022/07/30 15:44:18;;;;;;;4.40;3.47;;;27.30;50.50;;;;;;5099646;28;20416;-83
2022/07/30 15:47:44;;;;;;;3.37;2.37;;;27.30;50.50;;;;;;5095131;28;20405;-83
2022/07/30 15:53:50;;;;;;;2.97;2.67;;;27.30;50.60;;;;;;4996115;28;20454;-82
2022/07/30 15:56:27;;;;;;;3.67;2.83;;;27.30;50.50;;;;;;4977020;28;20417;-81
2022/07/30 15:59:19;;;;;;;2.90;2.70;;;27.30;50.50;;;;;;4995861;28;20417;-83
2022/07/30 16:01:55;;;;;;;2.93;2.63;;;27.30;50.50;;;;;;4996829;28;20440;-82
2022/07/30 16:05:18;;;;;;;3.07;2.80;;;27.30;50.60;;;;;;4976844;28;20409;-82
2022/07/30 16:11:14;;;;;;;4.03;3.37;;;27.40;50.60;;;;;;4993021;28;20436;-82
2022/07/30 16:13:52;;;;;;;3.60;2.73;;;27.30;50.60;;;;;;4996742;28;20512;-82
2022/07/30 16:20:00;;;;;;;3.40;3.10;;;27.30;50.60;;;;;;4996547;28;20436;-81
2022/07/30 16:22:57;;;;;;;3.57;2.57;;;27.30;50.70;;;;;;4994836;28;20930;-81
2022/07/30 16:25:29;;;;;;;4.43;3.27;;;27.30;50.60;;;;;;4983513;28;20424;-81
2022/07/30 16:28:06;;;;;;;3.10;2.80;;;27.40;50.80;;;;;;5017179;28;20927;-81
2022/07/30 16:30:39;;;;;;;4.57;4.13;;;27.40;50.50;;;;;;5033488;28;20470;-81
2022/07/30 16:33:22;;;;;;;3.47;3.17;;;27.40;50.50;;;;;;5033497;28;20411;-81
2022/07/30 16:39:13;;;;;;;3.73;3.43;;;27.40;50.90;;;;;;5033291;28;20406;-82
2022/07/30 16:41:43;;;;;;;3.60;2.93;;;27.40;50.90;;;;;;5014854;28;20421;-80
2022/07/30 16:44:17;;;;;;;5.47;3.17;;;27.40;50.90;;;;;;5086747;28;20407;-81
2022/07/30 16:46:44;;;;;;;4.63;3.33;;;27.40;50.90;;;;;;5096813;28;20407;-80
2022/07/30 16:49:13;;;;;;;3.90;3.23;;;27.40;50.80;;;;;;5096516;28;20481;-79